createdAt,value
2018-11-25T00:00:32.214Z,312.10
2018-11-25T00:01:36.349Z,312.20
2018-11-25T00:02:40.441Z,319.23
2018-11-25T00:03:44.609Z,306.07
2018-11-25T00:04:48.666Z,317.05
2018-11-25T00:05:52.679Z,303.98
2018-11-25T00:06:56.724Z,311.75
2018-11-25T00:08:00.832Z,297.60
2018-11-25T00:09:07.132Z,306.32
2018-11-25T00:10:11.254Z,307.05
2018-11-25T00:11:15.968Z,293.93
2018-11-25T00:12:20.395Z,320.27
2018-11-25T00:13:24.413Z,306.47
2018-11-25T00:14:28.464Z,305.73
2018-11-25T00:15:32.576Z,323.00
2018-11-25T00:16:36.737Z,321.62
2018-11-25T00:17:40.869Z,320.17
2018-11-25T00:18:44.999Z,303.70
2018-11-25T00:19:49.132Z,312.17
2018-11-25T00:20:53.166Z,311.60
2018-11-25T00:21:57.308Z,310.60
2018-11-25T00:23:01.425Z,307.75
2018-11-25T00:24:05.972Z,311.73
2018-11-25T00:25:11.388Z,318.77
2018-11-25T00:26:15.444Z,313.87
2018-11-25T00:27:19.596Z,304.15
2018-11-25T00:28:23.703Z,297.35
2018-11-25T00:29:27.867Z,296.55
2018-11-25T00:30:31.921Z,296.07
2018-11-25T00:31:35.954Z,287.90
2018-11-25T00:32:40.064Z,313.95
2018-11-25T00:33:44.107Z,293.90
2018-11-25T00:34:48.227Z,291.50
2018-11-25T00:35:52.319Z,295.93
2018-11-25T00:36:56.396Z,295.73
2018-11-25T00:38:00.595Z,308.77
2018-11-25T00:39:06.168Z,317.23
2018-11-25T00:40:11.731Z,313.40
2018-11-25T00:41:15.797Z,299.15
2018-11-25T00:42:19.911Z,313.37
2018-11-25T00:43:24.023Z,311.00
2018-11-25T00:44:28.076Z,303.30
2018-11-25T00:45:32.112Z,327.48
2018-11-25T00:46:36.251Z,323.55
2018-11-25T00:47:40.483Z,318.42
2018-11-25T00:48:44.468Z,303.32
2018-11-25T00:49:48.612Z,296.30
2018-11-25T00:50:52.638Z,286.20
2018-11-25T00:51:56.780Z,282.85
2018-11-25T00:53:00.852Z,278.05
2018-11-25T00:54:04.997Z,279.80
2018-11-25T00:55:13.532Z,274.30
2018-11-25T00:56:17.625Z,289.02
2018-11-25T00:57:21.638Z,294.05
2018-11-25T00:58:25.778Z,286.52
2018-11-25T00:59:29.854Z,291.65
2018-11-25T01:00:33.952Z,283.25
2018-11-25T01:01:38.117Z,288.20
2018-11-25T01:02:42.295Z,294.05
2018-11-25T01:03:46.329Z,280.20
2018-11-25T01:04:50.365Z,297.42
2018-11-25T01:05:54.412Z,294.82
2018-11-25T01:06:58.576Z,294.95
2018-11-25T01:08:02.616Z,292.43
2018-11-25T01:09:09.092Z,284.55
2018-11-25T01:10:14.490Z,281.02
2018-11-25T01:11:18.581Z,292.82
2018-11-25T01:12:22.778Z,296.32
2018-11-25T01:13:26.819Z,293.67
2018-11-25T01:14:30.851Z,297.07
2018-11-25T01:15:34.909Z,296.95
2018-11-25T01:16:38.895Z,273.85
2018-11-25T01:17:43.119Z,295.33
2018-11-25T01:18:47.600Z,304.80
2018-11-25T01:19:51.647Z,288.80
2018-11-25T01:20:55.731Z,287.70
2018-11-25T01:21:59.831Z,284.20
2018-11-25T01:23:04.154Z,306.85
2018-11-25T01:24:08.231Z,286.27
2018-11-25T01:25:12.702Z,294.18
2018-11-25T01:26:16.711Z,295.40
2018-11-25T01:27:20.785Z,294.07
2018-11-25T01:28:24.925Z,289.57
2018-11-25T01:29:28.985Z,295.93
2018-11-25T01:30:33.036Z,292.90
2018-11-25T01:31:37.178Z,297.82
2018-11-25T01:32:41.327Z,305.02
2018-11-25T01:33:45.466Z,299.77
2018-11-25T01:34:49.543Z,285.85
2018-11-25T01:35:53.641Z,291.08
2018-11-25T01:36:57.681Z,286.02
2018-11-25T01:38:01.805Z,278.30
2018-11-25T01:39:07.500Z,288.80
2018-11-25T01:40:13.701Z,284.02
2018-11-25T01:41:17.833Z,276.10
2018-11-25T01:42:27.220Z,302.93
2018-11-25T01:43:31.295Z,286.95
2018-11-25T01:44:35.336Z,291.25
2018-11-25T01:45:39.498Z,287.33
2018-11-25T01:46:43.608Z,323.68
2018-11-25T01:47:47.709Z,305.55
2018-11-25T01:48:51.808Z,316.93
2018-11-25T01:49:55.890Z,312.93
2018-11-25T01:51:00.038Z,298.52
2018-11-25T01:52:04.201Z,307.57
2018-11-25T01:53:08.269Z,319.60
2018-11-25T01:54:12.381Z,303.32
2018-11-25T01:55:17.515Z,305.90
2018-11-25T01:56:21.611Z,312.95
2018-11-25T01:57:25.668Z,316.82
2018-11-25T01:58:29.619Z,309.02
2018-11-25T01:59:33.628Z,325.05
2018-11-25T02:00:38.673Z,283.62
2018-11-25T02:01:42.687Z,299.05
2018-11-25T02:02:46.867Z,295.23
2018-11-25T02:03:50.990Z,293.60
2018-11-25T02:04:55.050Z,307.02
2018-11-25T02:05:59.082Z,289.72
2018-11-25T02:07:03.046Z,311.02
2018-11-25T02:08:07.216Z,316.52
2018-11-25T02:09:11.352Z,307.50
2018-11-25T02:10:22.427Z,304.60
2018-11-25T02:11:26.501Z,294.85
2018-11-25T02:12:30.590Z,297.10
2018-11-25T02:13:34.701Z,320.23
2018-11-25T02:14:38.768Z,307.20
2018-11-25T02:15:43.106Z,299.42
2018-11-25T02:16:47.064Z,295.35
2018-11-25T02:17:51.176Z,310.93
2018-11-25T02:18:55.297Z,299.07
2018-11-25T02:19:59.351Z,319.30
2018-11-25T02:21:03.511Z,309.92
2018-11-25T02:22:07.648Z,317.68
2018-11-25T02:23:11.776Z,310.73
2018-11-25T02:24:15.786Z,320.88
2018-11-25T02:25:19.819Z,320.48
2018-11-25T02:26:23.784Z,309.32
2018-11-25T02:27:27.894Z,316.93
2018-11-25T02:28:32.107Z,294.55
2018-11-25T02:29:36.268Z,307.43
2018-11-25T02:30:40.416Z,306.65
2018-11-25T02:31:44.453Z,293.70
2018-11-25T02:32:48.543Z,275.50
2018-11-25T02:33:52.866Z,275.35
2018-11-25T02:34:57.030Z,280.75
2018-11-25T02:36:01.064Z,290.38
2018-11-25T02:37:05.102Z,279.30
2018-11-25T02:38:14.449Z,308.40
2018-11-25T02:39:18.462Z,305.73
2018-11-25T02:40:22.519Z,297.57
2018-11-25T02:41:26.496Z,295.12
2018-11-25T02:42:30.596Z,286.62
2018-11-25T02:43:34.693Z,296.70
2018-11-25T02:44:38.730Z,306.63
2018-11-25T02:45:42.733Z,295.23
2018-11-25T02:46:46.740Z,290.55
2018-11-25T02:47:50.877Z,289.25
2018-11-25T02:48:54.917Z,287.60
2018-11-25T02:49:58.881Z,279.43
2018-11-25T02:51:02.944Z,279.80
2018-11-25T02:52:06.962Z,287.85
2018-11-25T02:53:11.002Z,288.62
2018-11-25T02:54:15.205Z,282.53
2018-11-25T02:55:22.416Z,298.35
2018-11-25T02:56:26.580Z,264.38
2018-11-25T02:57:30.522Z,290.02
2018-11-25T02:58:34.576Z,306.90
2018-11-25T02:59:38.711Z,315.77
2018-11-25T03:00:46.693Z,323.52
2018-11-25T03:01:50.747Z,314.25
2018-11-25T03:02:54.744Z,302.15
2018-11-25T03:03:58.832Z,319.27
2018-11-25T03:05:02.913Z,307.43
2018-11-25T03:06:07.080Z,288.07
2018-11-25T03:07:11.096Z,292.57
2018-11-25T03:08:15.149Z,283.57
2018-11-25T03:09:19.301Z,304.10
2018-11-25T03:10:23.364Z,299.55
2018-11-25T03:11:27.363Z,300.68
2018-11-25T03:12:31.332Z,311.73
2018-11-25T03:13:35.563Z,286.60
2018-11-25T03:14:40.555Z,286.35
2018-11-25T03:15:44.633Z,287.12
2018-11-25T03:16:49.208Z,297.70
2018-11-25T03:17:53.247Z,285.32
2018-11-25T03:18:57.306Z,288.60
2018-11-25T03:20:01.367Z,281.93
2018-11-25T03:21:05.453Z,289.38
2018-11-25T03:22:10.615Z,307.48
2018-11-25T03:23:14.701Z,295.82
2018-11-25T03:24:18.803Z,315.73
2018-11-25T03:25:29.749Z,303.70
2018-11-25T03:26:33.822Z,297.15
2018-11-25T03:27:38.118Z,328.15
2018-11-25T03:28:42.082Z,306.45
2018-11-25T03:29:47.112Z,303.73
2018-11-25T03:30:51.250Z,295.67
2018-11-25T03:31:55.330Z,292.30
2018-11-25T03:32:59.456Z,301.52
2018-11-25T03:34:03.409Z,314.57
2018-11-25T03:35:08.464Z,298.05
2018-11-25T03:36:12.444Z,301.05
2018-11-25T03:37:16.431Z,292.82
2018-11-25T03:38:20.448Z,306.23
2018-11-25T03:39:24.523Z,305.95
2018-11-25T03:40:28.638Z,317.98
2018-11-25T03:41:32.683Z,312.95
2018-11-25T03:42:37.767Z,299.23
2018-11-25T03:43:41.824Z,304.65
2018-11-25T03:44:45.974Z,290.07
2018-11-25T03:45:51.896Z,285.52
2018-11-25T03:46:55.932Z,277.07
2018-11-25T03:48:03.053Z,276.00
2018-11-25T03:49:07.123Z,269.70
2018-11-25T03:50:12.005Z,297.70
2018-11-25T03:51:16.194Z,314.75
2018-11-25T03:52:20.219Z,308.25
2018-11-25T03:53:24.364Z,317.15
2018-11-25T03:54:28.396Z,301.45
2018-11-25T03:55:32.593Z,307.83
2018-11-25T03:56:36.953Z,285.68
2018-11-25T03:57:41.055Z,304.60
2018-11-25T03:58:45.216Z,285.68
2018-11-25T03:59:49.279Z,285.02
2018-11-25T04:00:53.311Z,292.27
2018-11-25T04:01:57.389Z,273.52
2018-11-25T04:03:01.575Z,266.17
2018-11-25T04:04:06.059Z,259.45
2018-11-25T04:05:11.383Z,272.95
2018-11-25T04:06:15.401Z,275.70
2018-11-25T04:07:19.806Z,290.38
2018-11-25T04:08:24.000Z,277.25
2018-11-25T04:09:28.212Z,271.00
2018-11-25T04:10:32.362Z,287.52
2018-11-25T04:11:37.653Z,275.87
2018-11-25T04:12:41.641Z,277.98
2018-11-25T04:13:45.703Z,281.32
2018-11-25T04:14:50.013Z,275.40
2018-11-25T04:15:54.092Z,283.30
2018-11-25T04:16:59.188Z,283.35
2018-11-25T04:18:03.280Z,271.62
2018-11-25T04:19:07.404Z,265.37
2018-11-25T04:20:14.679Z,261.95
2018-11-25T04:21:18.787Z,266.12
2018-11-25T04:22:23.619Z,254.25
2018-11-25T04:23:27.660Z,271.52
2018-11-25T04:24:31.827Z,252.30
2018-11-25T04:25:36.544Z,259.07
2018-11-25T04:26:40.612Z,258.98
2018-11-25T04:27:44.590Z,267.98
2018-11-25T04:28:48.669Z,282.75
2018-11-25T04:29:52.813Z,309.15
2018-11-25T04:30:56.884Z,288.93
2018-11-25T04:32:01.018Z,282.12
2018-11-25T04:33:05.089Z,285.35
2018-11-25T04:34:09.136Z,273.50
2018-11-25T04:35:13.719Z,273.00
2018-11-25T04:36:17.684Z,261.40
2018-11-25T04:37:21.822Z,272.93
2018-11-25T04:38:25.787Z,267.65
2018-11-25T04:39:29.832Z,282.43
2018-11-25T04:40:33.929Z,248.53
2018-11-25T04:41:38.091Z,270.57
2018-11-25T04:42:42.103Z,262.75
2018-11-25T04:43:46.053Z,272.37
2018-11-25T04:44:50.072Z,260.38
2018-11-25T04:45:54.162Z,263.10
2018-11-25T04:46:58.240Z,272.12
2018-11-25T04:48:02.366Z,272.48
2018-11-25T04:49:06.821Z,281.43
2018-11-25T04:50:12.399Z,286.18
2018-11-25T04:51:16.511Z,282.98
2018-11-25T04:52:20.619Z,273.52
2018-11-25T04:53:24.684Z,282.83
2018-11-25T04:54:28.760Z,273.27
2018-11-25T04:55:32.874Z,263.10
2018-11-25T04:56:36.943Z,252.15
2018-11-25T04:57:42.137Z,252.35
2018-11-25T04:58:46.172Z,255.12
2018-11-25T04:59:50.339Z,250.87
2018-11-25T05:00:54.452Z,257.70
2018-11-25T05:01:58.449Z,244.40
2018-11-25T05:03:02.440Z,244.65
2018-11-25T05:04:06.880Z,248.68
2018-11-25T05:05:17.228Z,249.42
2018-11-25T05:06:21.183Z,240.20
2018-11-25T05:07:25.276Z,231.87
2018-11-25T05:08:29.315Z,230.92
2018-11-25T05:09:33.364Z,237.27
2018-11-25T05:10:37.416Z,229.47
2018-11-25T05:11:41.441Z,234.75
2018-11-25T05:12:45.492Z,218.48
2018-11-25T05:13:49.547Z,213.50
2018-11-25T05:14:53.608Z,216.17
2018-11-25T05:15:57.599Z,212.80
2018-11-25T05:17:01.611Z,194.28
2018-11-25T05:18:05.893Z,192.70
2018-11-25T05:19:09.842Z,168.70
2018-11-25T05:20:14.499Z,163.57
2018-11-25T05:21:18.516Z,165.28
2018-11-25T05:22:22.589Z,161.68
2018-11-25T05:23:26.543Z,159.75
2018-11-25T05:24:30.495Z,168.60
2018-11-25T05:25:34.627Z,152.60
2018-11-25T05:26:38.968Z,151.10
2018-11-25T05:27:43.296Z,148.10
2018-11-25T05:28:47.360Z,138.65
2018-11-25T05:29:51.387Z,142.32
2018-11-25T05:30:55.411Z,133.67
2018-11-25T05:31:59.528Z,129.53
2018-11-25T05:33:03.634Z,124.97
2018-11-25T05:34:07.772Z,125.05
2018-11-25T05:35:12.867Z,135.70
2018-11-25T05:36:17.048Z,126.75
2018-11-25T05:37:21.124Z,116.62
2018-11-25T05:38:25.203Z,124.12
2018-11-25T05:39:29.191Z,125.85
2018-11-25T05:40:33.146Z,125.72
2018-11-25T05:41:37.203Z,117.60
2018-11-25T05:42:41.310Z,131.10
2018-11-25T05:43:45.428Z,114.72
2018-11-25T05:44:49.424Z,121.75
2018-11-25T05:45:53.443Z,122.33
2018-11-25T05:46:58.641Z,119.72
2018-11-25T05:48:02.723Z,108.47
2018-11-25T05:49:07.021Z,100.22
2018-11-25T05:50:14.311Z,103.50
2018-11-25T05:51:18.332Z,107.90
2018-11-25T05:52:22.315Z,99.65
2018-11-25T05:53:26.331Z,107.27
2018-11-25T05:54:30.488Z,103.47
2018-11-25T05:55:34.571Z,108.30
2018-11-25T05:56:38.692Z,108.70
2018-11-25T05:57:42.875Z,100.78
2018-11-25T05:58:46.945Z,105.58
2018-11-25T05:59:51.089Z,105.45
2018-11-25T06:00:55.171Z,112.08
2018-11-25T06:01:59.283Z,107.27
2018-11-25T06:03:03.244Z,106.70
2018-11-25T06:04:07.440Z,101.25
2018-11-25T06:05:11.472Z,107.00
2018-11-25T06:06:15.611Z,103.42
2018-11-25T06:07:19.671Z,100.87
2018-11-25T06:08:23.684Z,107.40
2018-11-25T06:09:27.809Z,107.52
2018-11-25T06:10:31.725Z,98.87
2018-11-25T06:11:35.727Z,103.02
2018-11-25T06:12:39.888Z,101.15
2018-11-25T06:13:44.154Z,113.85
2018-11-25T06:14:48.179Z,128.45
2018-11-25T06:15:52.443Z,120.65
2018-11-25T06:16:56.523Z,139.43
2018-11-25T06:18:00.557Z,144.75
2018-11-25T06:19:04.527Z,142.90
2018-11-25T06:20:29.760Z,142.20
2018-11-25T06:21:33.812Z,135.52
2018-11-25T06:22:37.899Z,134.15
2018-11-25T06:23:41.855Z,134.18
2018-11-25T06:24:45.824Z,136.60
2018-11-25T06:25:49.883Z,138.30
2018-11-25T06:26:53.947Z,135.32
2018-11-25T06:27:58.188Z,142.13
2018-11-25T06:29:02.216Z,140.18
2018-11-25T06:30:10.203Z,135.78
2018-11-25T06:31:14.259Z,135.57
2018-11-25T06:32:18.801Z,138.37
2018-11-25T06:33:22.921Z,139.90
2018-11-25T06:34:29.830Z,143.17
2018-11-25T06:35:33.919Z,143.05
2018-11-25T06:36:38.101Z,144.57
2018-11-25T06:37:42.184Z,136.72
2018-11-25T06:38:46.139Z,141.28
2018-11-25T06:39:50.708Z,132.78
2018-11-25T06:40:55.040Z,145.68
2018-11-25T06:41:59.131Z,153.00
2018-11-25T06:43:03.151Z,145.22
2018-11-25T06:44:14.119Z,139.57
2018-11-25T06:45:20.558Z,144.57
2018-11-25T06:46:24.641Z,137.20
2018-11-25T06:47:28.734Z,142.25
2018-11-25T06:48:32.775Z,147.35
2018-11-25T06:49:36.864Z,140.35
2018-11-25T06:50:40.919Z,142.22
2018-11-25T06:51:46.880Z,132.78
2018-11-25T06:52:50.967Z,135.82
2018-11-25T06:53:55.103Z,149.90
2018-11-25T06:54:59.085Z,130.93
2018-11-25T06:56:03.115Z,128.53
2018-11-25T06:57:07.184Z,137.12
2018-11-25T06:58:11.223Z,130.82
2018-11-25T06:59:15.283Z,121.72
2018-11-25T07:00:23.376Z,122.67
2018-11-25T07:01:27.376Z,126.77
2018-11-25T07:02:31.413Z,126.78
2018-11-25T07:03:35.477Z,129.72
2018-11-25T07:04:39.587Z,124.90
2018-11-25T07:05:43.634Z,114.15
2018-11-25T07:06:47.823Z,118.82
2018-11-25T07:07:58.335Z,118.10
2018-11-25T07:09:02.650Z,121.35
2018-11-25T07:10:12.455Z,118.67
2018-11-25T07:11:16.681Z,116.45
2018-11-25T07:12:20.689Z,101.90
2018-11-25T07:13:24.700Z,106.00
2018-11-25T07:14:29.014Z,109.32
2018-11-25T07:15:33.107Z,102.58
2018-11-25T07:16:37.298Z,107.55
2018-11-25T07:17:41.307Z,106.50
2018-11-25T07:18:45.328Z,104.83
2018-11-25T07:19:49.409Z,109.07
2018-11-25T07:20:53.516Z,104.58
2018-11-25T07:21:57.571Z,104.40
2018-11-25T07:23:01.640Z,107.63
2018-11-25T07:24:05.677Z,99.15
2018-11-25T07:25:12.061Z,101.12
2018-11-25T07:26:22.781Z,96.47
2018-11-25T07:27:26.827Z,109.45
2018-11-25T07:28:30.828Z,102.47
2018-11-25T07:29:34.923Z,101.22
2018-11-25T07:30:38.945Z,103.53
2018-11-25T07:31:42.948Z,103.72
2018-11-25T07:32:47.143Z,95.38
2018-11-25T07:33:51.217Z,105.78
2018-11-25T07:34:55.287Z,111.55
2018-11-25T07:35:59.557Z,105.27
2018-11-25T07:37:03.588Z,103.53
2018-11-25T07:38:07.817Z,110.78
2018-11-25T07:39:11.875Z,112.15
2018-11-25T07:40:18.057Z,110.28
2018-11-25T07:41:22.271Z,108.97
2018-11-25T07:42:26.393Z,115.00
2018-11-25T07:43:30.489Z,116.03
2018-11-25T07:44:34.525Z,116.33
2018-11-25T07:45:38.490Z,114.92
2018-11-25T07:46:42.855Z,120.45
2018-11-25T07:47:46.971Z,127.50
2018-11-25T07:48:51.411Z,144.28
2018-11-25T07:49:55.419Z,137.30
2018-11-25T07:50:59.465Z,140.12
2018-11-25T07:52:03.616Z,145.00
2018-11-25T07:53:07.704Z,151.15
2018-11-25T07:54:11.785Z,152.47
2018-11-25T07:55:18.045Z,147.50
2018-11-25T07:56:22.078Z,157.20
2018-11-25T07:57:26.235Z,154.27
2018-11-25T07:58:30.251Z,158.57
2018-11-25T07:59:34.288Z,159.12
2018-11-25T08:00:38.297Z,143.52
2018-11-25T08:01:42.441Z,154.15
2018-11-25T08:02:46.565Z,153.42
2018-11-25T08:03:50.652Z,156.32
2018-11-25T08:04:54.773Z,147.50
2018-11-25T08:05:58.821Z,169.28
2018-11-25T08:07:03.065Z,230.55
2018-11-25T08:08:08.001Z,233.02
2018-11-25T08:09:12.067Z,216.13
2018-11-25T08:10:16.664Z,153.13
2018-11-25T08:11:20.701Z,131.80
2018-11-25T08:12:24.695Z,132.85
2018-11-25T08:14:37.907Z,109.78
2018-11-25T08:15:43.091Z,125.33
2018-11-25T08:16:47.267Z,115.65
2018-11-25T08:17:51.331Z,114.50
2018-11-25T08:18:55.432Z,119.37
2018-11-25T08:19:59.537Z,111.45
2018-11-25T08:21:04.017Z,114.15
2018-11-25T08:22:08.341Z,108.57
2018-11-25T08:23:13.563Z,109.52
2018-11-25T08:24:16.558Z,118.57
2018-11-25T08:25:21.461Z,116.40
2018-11-25T08:26:25.466Z,112.85
2018-11-25T08:27:29.489Z,115.80
2018-11-25T08:28:33.553Z,126.02
2018-11-25T08:29:37.591Z,124.50
2018-11-25T08:30:41.644Z,123.22
2018-11-25T08:31:45.666Z,123.45
2018-11-25T08:32:51.128Z,122.95
2018-11-25T08:33:55.176Z,121.75
2018-11-25T08:34:59.275Z,129.25
2018-11-25T08:36:03.336Z,124.12
2018-11-25T08:37:07.716Z,133.00
2018-11-25T08:38:11.785Z,123.13
2018-11-25T08:39:15.755Z,125.73
2018-11-25T08:40:21.054Z,128.02
2018-11-25T08:41:25.103Z,135.25
2018-11-25T08:42:29.056Z,130.05
2018-11-25T08:43:33.178Z,126.72
2018-11-25T08:44:37.356Z,130.37
2018-11-25T08:45:41.409Z,131.75
2018-11-25T08:46:45.490Z,123.95
2018-11-25T08:47:49.512Z,129.10
2018-11-25T08:48:53.564Z,129.38
2018-11-25T08:49:57.726Z,126.10
2018-11-25T08:51:01.851Z,127.90
2018-11-25T08:52:06.349Z,122.20
2018-11-25T08:53:11.284Z,111.22
2018-11-25T08:54:15.315Z,129.00
2018-11-25T08:55:26.457Z,132.03
2018-11-25T08:56:30.588Z,152.80
2018-11-25T08:57:34.713Z,135.45
2018-11-25T08:58:38.826Z,134.95
2018-11-25T08:59:42.918Z,134.75
2018-11-25T09:00:47.330Z,125.47
2018-11-25T09:01:51.461Z,130.27
2018-11-25T09:02:57.311Z,132.43
2018-11-25T09:04:01.365Z,137.95
2018-11-25T09:05:05.722Z,131.25
2018-11-25T09:06:09.813Z,133.55
2018-11-25T09:07:13.940Z,126.87
2018-11-25T09:08:18.070Z,131.05
2018-11-25T09:09:22.238Z,140.40
2018-11-25T09:10:26.352Z,141.28
2018-11-25T09:11:30.413Z,138.80
2018-11-25T09:12:34.546Z,148.97
2018-11-25T09:13:38.763Z,130.12
2018-11-25T09:14:42.850Z,149.38
2018-11-25T09:15:46.918Z,144.35
2018-11-25T09:16:51.068Z,140.68
2018-11-25T09:17:55.246Z,140.45
2018-11-25T09:18:59.418Z,149.00
2018-11-25T09:20:03.560Z,147.57
2018-11-25T09:21:07.728Z,156.32
2018-11-25T09:22:11.982Z,153.25
2018-11-25T09:23:16.063Z,150.85
2018-11-25T09:24:20.078Z,147.25
2018-11-25T09:25:30.497Z,148.28
2018-11-25T09:26:34.529Z,151.25
2018-11-25T09:27:38.605Z,147.55
2018-11-25T09:28:42.687Z,146.62
2018-11-25T09:29:48.613Z,145.72
2018-11-25T09:30:52.672Z,147.90
2018-11-25T09:31:56.832Z,143.30
2018-11-25T09:33:00.995Z,153.02
2018-11-25T09:34:10.043Z,146.80
2018-11-25T09:35:14.187Z,133.45
2018-11-25T09:36:18.259Z,141.80
2018-11-25T09:37:22.533Z,131.67
2018-11-25T09:38:26.692Z,142.68
2018-11-25T09:39:30.920Z,140.55
2018-11-25T09:40:34.974Z,134.55
2018-11-25T09:41:39.080Z,142.70
2018-11-25T09:42:43.178Z,145.75
2018-11-25T09:43:47.164Z,149.68
2018-11-25T09:44:51.349Z,152.02
2018-11-25T09:45:55.528Z,150.12
2018-11-25T09:46:59.604Z,151.97
2018-11-25T09:48:03.734Z,153.90
2018-11-25T09:49:07.924Z,137.32
2018-11-25T09:50:15.345Z,135.22
2018-11-25T09:51:19.466Z,134.93
2018-11-25T09:52:23.750Z,134.22
2018-11-25T09:53:27.893Z,145.53
2018-11-25T09:54:31.968Z,138.95
2018-11-25T09:55:36.058Z,135.10
2018-11-25T09:56:40.295Z,140.55
2018-11-25T09:57:46.897Z,129.05
2018-11-25T09:58:51.136Z,132.80
2018-11-25T09:59:55.244Z,135.48
2018-11-25T10:00:59.482Z,161.07
2018-11-25T10:02:03.604Z,149.90
2018-11-25T10:03:08.394Z,153.60
2018-11-25T10:04:12.478Z,136.03
2018-11-25T10:05:16.636Z,136.80
2018-11-25T10:06:20.727Z,117.80
2018-11-25T10:07:24.744Z,122.62
2018-11-25T10:08:29.658Z,119.60
2018-11-25T10:09:33.764Z,127.75
2018-11-25T10:10:37.829Z,122.35
2018-11-25T10:11:41.944Z,110.78
2018-11-25T10:12:46.059Z,114.92
2018-11-25T10:13:50.109Z,111.75
2018-11-25T10:14:54.175Z,106.43
2018-11-25T10:15:58.287Z,107.10
2018-11-25T10:17:02.411Z,116.22
2018-11-25T10:18:06.687Z,111.80
2018-11-25T10:19:10.798Z,103.97
2018-11-25T10:20:21.039Z,107.75
2018-11-25T10:21:25.110Z,92.85
2018-11-25T10:22:29.212Z,95.15
2018-11-25T10:23:33.332Z,84.97
2018-11-25T10:24:37.362Z,71.40
2018-11-25T10:25:41.416Z,51.70
2018-11-25T10:26:45.526Z,66.80
2018-11-25T10:27:49.682Z,66.10
2018-11-25T10:28:53.762Z,80.65
2018-11-25T10:29:57.819Z,86.70
2018-11-25T10:31:01.903Z,104.10
2018-11-25T10:32:06.395Z,64.70
2018-11-25T10:33:10.886Z,58.40
2018-11-25T10:34:15.078Z,65.03
2018-11-25T10:35:19.384Z,70.87
2018-11-25T10:36:23.664Z,63.20
2018-11-25T10:37:27.824Z,55.40
2018-11-25T10:38:32.107Z,45.52
2018-11-25T10:39:36.343Z,50.52
2018-11-25T10:40:40.444Z,51.63
2018-11-25T10:41:44.531Z,46.00
2018-11-25T10:42:48.707Z,49.93
2018-11-25T10:43:52.907Z,49.95
2018-11-25T10:44:57.054Z,53.10
2018-11-25T10:46:01.310Z,50.63
2018-11-25T10:47:05.536Z,49.45
2018-11-25T10:48:09.765Z,48.23
2018-11-25T10:49:13.971Z,53.42
2018-11-25T10:50:19.027Z,53.95
2018-11-25T10:51:23.084Z,54.27
2018-11-25T10:52:27.346Z,57.17
2018-11-25T10:53:31.488Z,62.08
2018-11-25T10:54:35.736Z,66.40
2018-11-25T10:55:39.923Z,57.35
2018-11-25T10:56:44.072Z,54.93
2018-11-25T10:57:49.227Z,50.85
2018-11-25T10:58:54.086Z,48.40
2018-11-25T10:59:58.263Z,45.60
2018-11-25T11:01:07.362Z,47.75
2018-11-25T11:02:16.713Z,45.58
2018-11-25T11:03:25.950Z,49.58
2018-11-25T11:04:35.225Z,46.35
2018-11-25T11:06:47.607Z,53.20
2018-11-25T11:07:51.732Z,56.60
2018-11-25T11:09:00.800Z,52.05
2018-11-25T11:10:05.300Z,52.58
2018-11-25T11:11:09.651Z,46.83
2018-11-25T11:12:14.017Z,53.25
2018-11-25T11:13:22.679Z,51.35
2018-11-25T11:17:05.740Z,54.53
2018-11-25T11:18:10.077Z,59.63
2018-11-25T11:19:18.451Z,53.58
2018-11-25T11:20:22.727Z,56.70
2018-11-25T11:21:26.888Z,55.65
2018-11-25T11:22:33.822Z,60.05
2018-11-25T11:23:38.047Z,55.58
2018-11-25T11:24:42.270Z,54.65
2018-11-25T11:25:46.619Z,61.68
2018-11-25T11:26:50.672Z,55.78
2018-11-25T11:27:54.768Z,58.02
2018-11-25T11:28:59.367Z,55.17
2018-11-25T11:30:03.610Z,57.80
2018-11-25T11:31:13.319Z,56.77
2018-11-25T11:32:12.248Z,58.73
2018-11-25T11:33:16.384Z,60.98
2018-11-25T11:34:21.442Z,58.63
2018-11-25T11:35:25.516Z,53.02
2018-11-25T11:36:29.867Z,55.60
2018-11-25T11:37:34.498Z,51.50
2018-11-25T11:38:39.232Z,57.15
2018-11-25T11:39:43.271Z,53.87
2018-11-25T11:40:47.444Z,56.73
2018-11-25T11:41:51.902Z,54.30
2018-11-25T11:42:56.450Z,52.63
2018-11-25T11:44:00.528Z,53.35
2018-11-25T11:45:05.386Z,57.45
2018-11-25T11:46:09.468Z,57.48
2018-11-25T11:47:13.554Z,55.95
2018-11-25T11:48:17.670Z,56.05
2018-11-25T11:49:21.807Z,57.73
2018-11-25T11:50:26.163Z,59.20
2018-11-25T11:51:30.198Z,56.92
2018-11-25T11:52:34.248Z,56.30
2018-11-25T11:53:38.413Z,53.35
2018-11-25T11:54:42.565Z,57.20
2018-11-25T11:55:46.733Z,66.35
2018-11-25T11:56:55.861Z,113.25
2018-11-25T11:58:00.082Z,83.67
2018-11-25T11:59:04.224Z,87.72
2018-11-25T12:00:17.616Z,84.13
2018-11-25T12:01:21.853Z,85.25
2018-11-25T12:02:31.490Z,68.42
2018-11-25T12:03:30.858Z,79.40
2018-11-25T12:04:35.100Z,87.67
2018-11-25T12:05:39.791Z,73.30
2018-11-25T12:06:43.485Z,127.58
2018-11-25T12:07:48.184Z,128.95
2018-11-25T12:08:52.338Z,92.72
2018-11-25T12:09:56.458Z,75.92
2018-11-25T12:11:00.784Z,75.10
2018-11-25T12:12:05.043Z,76.62
2018-11-25T12:13:09.276Z,78.65
2018-11-25T12:14:13.461Z,76.28
2018-11-25T12:15:33.370Z,80.45
2018-11-25T12:16:37.471Z,71.97
2018-11-25T12:17:41.603Z,77.95
2018-11-25T12:18:45.789Z,75.32
2018-11-25T12:19:50.018Z,71.50
2018-11-25T12:20:54.182Z,67.45
2018-11-25T12:21:58.515Z,64.27
2018-11-25T12:23:02.554Z,62.73
2018-11-25T12:24:06.836Z,67.42
2018-11-25T12:25:12.635Z,57.33
2018-11-25T12:26:16.710Z,64.53
2018-11-25T12:27:20.715Z,55.88
2018-11-25T12:28:24.867Z,65.75
2018-11-25T12:29:28.881Z,61.83
2018-11-25T12:30:32.923Z,60.35
2018-11-25T12:31:37.020Z,58.95
2018-11-25T12:32:41.477Z,62.10
2018-11-25T12:33:46.658Z,66.12
2018-11-25T12:34:50.801Z,60.92
2018-11-25T12:35:57.746Z,56.08
2018-11-25T12:37:01.822Z,58.68
2018-11-25T12:38:06.641Z,62.38
2018-11-25T12:39:10.784Z,63.08
2018-11-25T12:40:16.224Z,65.03
2018-11-25T12:41:20.280Z,59.53
2018-11-25T12:42:24.394Z,61.05
2018-11-25T12:43:28.511Z,65.50
2018-11-25T12:44:32.750Z,62.08
2018-11-25T12:45:36.926Z,64.32
2018-11-25T12:46:41.031Z,65.00
2018-11-25T12:47:45.151Z,58.38
2018-11-25T12:48:49.233Z,61.68
2018-11-25T12:49:53.433Z,60.35
2018-11-25T12:50:57.564Z,60.30
2018-11-25T12:52:01.549Z,60.92
2018-11-25T12:53:05.874Z,65.00
2018-11-25T12:54:10.028Z,61.98
2018-11-25T12:55:18.270Z,67.82
2018-11-25T12:56:22.389Z,66.85
2018-11-25T12:57:26.472Z,60.73
2018-11-25T12:58:31.825Z,65.55
2018-11-25T12:59:34.903Z,64.33
2018-11-25T13:00:40.633Z,54.93
2018-11-25T13:01:44.868Z,60.92
2018-11-25T13:02:49.067Z,62.13
2018-11-25T13:03:53.282Z,55.35
2018-11-25T13:04:57.319Z,63.20
2018-11-25T13:06:01.502Z,58.28
2018-11-25T13:07:06.287Z,54.73
2018-11-25T13:08:11.508Z,56.30
2018-11-25T13:09:15.629Z,58.40
2018-11-25T13:10:19.847Z,58.38
2018-11-25T13:11:23.996Z,58.78
2018-11-25T13:12:28.044Z,62.08
2018-11-25T13:13:32.305Z,61.53
2018-11-25T13:14:36.374Z,57.33
2018-11-25T13:15:40.588Z,58.52
2018-11-25T13:16:45.711Z,54.10
2018-11-25T13:17:49.808Z,56.68
2018-11-25T13:18:53.931Z,61.45
2018-11-25T13:19:58.175Z,91.35
2018-11-25T13:21:02.351Z,70.05
2018-11-25T13:22:06.700Z,97.17
2018-11-25T13:23:10.874Z,76.28
2018-11-25T13:24:15.116Z,65.52
2018-11-25T13:25:19.313Z,61.68
2018-11-25T13:26:23.331Z,62.10
2018-11-25T13:27:27.402Z,60.45
2018-11-25T13:28:31.489Z,71.42
2018-11-25T13:29:35.640Z,72.25
2018-11-25T13:30:39.693Z,70.12
2018-11-25T13:31:44.692Z,67.35
2018-11-25T13:32:49.540Z,68.45
2018-11-25T13:33:53.701Z,69.77
2018-11-25T13:35:00.864Z,70.45
2018-11-25T13:36:06.134Z,70.22